createdAt,value
2023-04-30T00:01:34.277Z,99088.78
2023-04-30T00:04:00.568Z,99085.28
2023-04-30T00:06:28.404Z,99092.50
2023-04-30T00:08:54.782Z,99088.97
2023-04-30T00:11:21.061Z,99092.50
2023-04-30T00:13:47.269Z,99088.97
2023-04-30T00:16:13.383Z,99090.81
2023-04-30T00:18:39.486Z,99081.97
2023-04-30T00:21:05.599Z,99090.81
2023-04-30T00:23:31.841Z,99091.63
2023-04-30T00:25:57.994Z,99099.66
2023-04-30T00:28:24.108Z,99090.81
2023-04-30T00:30:50.223Z,99090.81
2023-04-30T00:33:16.475Z,99089.19
2023-04-30T00:35:42.653Z,99102.34
2023-04-30T00:38:08.752Z,99106.03
2023-04-30T00:40:34.857Z,99102.53
2023-04-30T00:43:00.984Z,99106.03
2023-04-30T00:45:27.088Z,99105.22
2023-04-30T00:47:53.398Z,99105.22
2023-04-30T00:50:19.522Z,99105.22
2023-04-30T00:52:45.618Z,99107.88
2023-04-30T00:55:11.712Z,99108.88
2023-04-30T00:57:38.318Z,99099.03
2023-04-30T01:00:04.531Z,99106.03
2023-04-30T01:02:30.664Z,99106.22
2023-04-30T01:04:56.808Z,99108.88
2023-04-30T01:07:22.939Z,99104.56
2023-04-30T01:09:49.112Z,99108.06
2023-04-30T01:12:15.237Z,99113.22
2023-04-30T01:14:41.340Z,99110.56
2023-04-30T01:17:07.448Z,99113.22
2023-04-30T01:19:33.579Z,99103.53
2023-04-30T01:21:59.673Z,99108.06
2023-04-30T01:24:25.761Z,99104.38
2023-04-30T01:26:51.871Z,99100.03
2023-04-30T01:29:17.972Z,99104.38
2023-04-30T01:31:44.349Z,99097.38
2023-04-30T01:34:10.497Z,99105.38
2023-04-30T01:36:36.596Z,99108.88
2023-04-30T01:39:02.703Z,99105.59
2023-04-30T01:41:28.874Z,99101.06
2023-04-30T01:43:54.965Z,99101.06
2023-04-30T01:46:21.062Z,99099.41
2023-04-30T01:48:47.185Z,99100.25
2023-04-30T01:51:13.270Z,99101.06
2023-04-30T01:53:39.580Z,99092.22
2023-04-30T01:56:05.906Z,99099.41
2023-04-30T01:58:32.001Z,99104.75
2023-04-30T02:00:58.109Z,99103.91
2023-04-30T02:03:24.328Z,99100.41
2023-04-30T02:05:50.500Z,99098.56
2023-04-30T02:08:16.627Z,99099.41
2023-04-30T02:10:42.765Z,99101.25
2023-04-30T02:13:08.845Z,99097.75
2023-04-30T02:15:35.116Z,99098.78
2023-04-30T02:18:01.274Z,99097.75
2023-04-30T02:20:27.443Z,99098.78
2023-04-30T02:22:53.550Z,99087.25
2023-04-30T02:25:19.664Z,99091.59
2023-04-30T02:27:45.774Z,99098.78
2023-04-30T02:30:11.880Z,99096.94
2023-04-30T02:32:38.132Z,99089.91
2023-04-30T02:35:04.315Z,99095.25
2023-04-30T02:37:30.572Z,99094.44
2023-04-30T02:39:56.829Z,99097.94
2023-04-30T02:42:23.048Z,99105.13
2023-04-30T02:44:49.154Z,99108.63
2023-04-30T02:47:15.758Z,99109.66
2023-04-30T02:49:41.872Z,99109.66
2023-04-30T02:52:07.962Z,99115.81
2023-04-30T02:54:34.310Z,99117.66
2023-04-30T02:57:00.621Z,99115.00
2023-04-30T02:59:27.114Z,99109.66
2023-04-30T03:01:53.709Z,99111.50
2023-04-30T03:04:19.792Z,99112.50
2023-04-30T03:06:45.954Z,99112.50
2023-04-30T03:09:12.123Z,99118.66
2023-04-30T03:11:38.241Z,99115.97
2023-04-30T03:14:04.349Z,99112.50
2023-04-30T03:16:30.591Z,99113.31
2023-04-30T03:18:56.830Z,99112.50
2023-04-30T03:21:24.091Z,99105.47
2023-04-30T03:23:50.205Z,99104.66
2023-04-30T03:26:16.302Z,99109.13
2023-04-30T03:28:42.405Z,99107.31
2023-04-30T03:31:08.610Z,99107.31
2023-04-30T03:33:34.777Z,99106.47
2023-04-30T03:36:00.896Z,99104.66
2023-04-30T03:38:26.998Z,99102.97
2023-04-30T03:40:53.087Z,99101.97
2023-04-30T03:43:19.225Z,99094.13
2023-04-30T03:45:45.396Z,99096.81
2023-04-30T03:48:11.630Z,99093.31
2023-04-30T03:50:37.787Z,99093.31
2023-04-30T03:53:03.920Z,99088.97
2023-04-30T03:55:30.042Z,99100.50
2023-04-30T03:57:56.127Z,99098.66
2023-04-30T04:00:22.262Z,99098.66
2023-04-30T04:02:48.384Z,99105.84
2023-04-30T04:05:14.657Z,99103.19
2023-04-30T04:07:41.260Z,99102.34
2023-04-30T04:10:07.368Z,99105.84
2023-04-30T04:12:33.481Z,99104.19
2023-04-30T04:14:59.599Z,99102.34
2023-04-30T04:17:25.728Z,99105.00
2023-04-30T04:19:52.107Z,99110.34
2023-04-30T04:22:18.592Z,99110.34
2023-04-30T04:24:44.863Z,99105.00
2023-04-30T04:27:11.110Z,99116.53
2023-04-30T04:29:37.223Z,99121.03
2023-04-30T04:32:03.443Z,99126.38
2023-04-30T04:34:29.591Z,99123.91
2023-04-30T04:36:55.718Z,99130.06
2023-04-30T04:39:21.826Z,99127.41
2023-04-30T04:41:47.910Z,99134.38
2023-04-30T04:44:14.036Z,99141.75
2023-04-30T04:46:40.169Z,99139.94
2023-04-30T04:49:06.362Z,99134.59
2023-04-30T04:51:32.978Z,99130.06
2023-04-30T04:53:59.184Z,99139.09
2023-04-30T04:56:25.263Z,99132.09
2023-04-30T04:58:51.377Z,99140.94
2023-04-30T05:01:17.534Z,99137.44
2023-04-30T05:03:43.777Z,99134.78
2023-04-30T05:06:10.071Z,99129.44
2023-04-30T05:08:36.212Z,99129.44
2023-04-30T05:11:02.403Z,99126.75
2023-04-30T05:13:28.539Z,99128.59
2023-04-30T05:15:54.662Z,99132.09
2023-04-30T05:18:20.820Z,99131.28
2023-04-30T05:20:46.942Z,99141.13
2023-04-30T05:23:13.032Z,99141.13
2023-04-30T05:25:39.149Z,99141.13
2023-04-30T05:28:05.262Z,99135.78
2023-04-30T05:30:31.358Z,99149.16
2023-04-30T05:32:57.586Z,99149.97
2023-04-30T05:35:23.715Z,99145.63
2023-04-30T05:37:49.843Z,99149.16
2023-04-30T05:40:15.954Z,99150.16
2023-04-30T05:42:42.089Z,99146.47
2023-04-30T05:45:08.177Z,99147.47
2023-04-30T05:47:34.291Z,99150.16
2023-04-30T05:50:00.793Z,99145.84
2023-04-30T05:52:26.897Z,99150.16
2023-04-30T05:54:53.156Z,99153.03
2023-04-30T05:57:19.323Z,99158.16
2023-04-30T05:59:45.410Z,99150.34
2023-04-30T06:02:11.526Z,99153.03
2023-04-30T06:04:37.652Z,99155.69
2023-04-30T06:07:03.780Z,99153.03
2023-04-30T06:09:29.876Z,99156.53
2023-04-30T06:11:56.503Z,99153.84
2023-04-30T06:14:22.611Z,99155.69
2023-04-30T06:16:48.830Z,99157.53
2023-04-30T06:19:14.984Z,99157.53
2023-04-30T06:21:41.085Z,99162.69
2023-04-30T06:24:07.176Z,99161.88
2023-04-30T06:26:33.345Z,99156.53
2023-04-30T06:28:59.447Z,99164.53
2023-04-30T06:31:25.609Z,99153.03
2023-04-30T06:33:51.746Z,99159.19
2023-04-30T06:36:17.839Z,99162.84
2023-04-30T06:38:44.124Z,99161.88
2023-04-30T06:41:10.258Z,99163.72
2023-04-30T06:43:36.377Z,99163.72
2023-04-30T06:46:02.518Z,99155.69
2023-04-30T06:48:28.672Z,99155.50
2023-04-30T06:50:54.761Z,99155.50
2023-04-30T06:53:20.837Z,99153.84
2023-04-30T06:55:47.101Z,99152.00
2023-04-30T06:58:13.206Z,99153.84
2023-04-30T07:00:39.354Z,99155.69
2023-04-30T07:03:05.530Z,99154.03
2023-04-30T07:05:31.693Z,99160.19
2023-04-30T07:07:57.789Z,99153.03
2023-04-30T07:10:23.886Z,99152.00
2023-04-30T07:12:49.987Z,99151.19
2023-04-30T07:15:16.103Z,99153.84
2023-04-30T07:17:42.572Z,99152.00
2023-04-30T07:20:08.721Z,99151.81
2023-04-30T07:22:34.892Z,99153.84
2023-04-30T07:25:01.008Z,99143.16
2023-04-30T07:27:27.101Z,99152.00
2023-04-30T07:29:53.366Z,99151.19
2023-04-30T07:32:19.622Z,99150.16
2023-04-30T07:34:45.726Z,99150.16
2023-04-30T07:37:11.829Z,99153.66
2023-04-30T07:39:37.950Z,99157.16
2023-04-30T07:42:04.062Z,99162.50
2023-04-30T07:47:05.257Z,99150.16
2023-04-30T07:49:31.378Z,99148.31
2023-04-30T07:51:57.533Z,99149.16
2023-04-30T07:54:23.650Z,99153.47
2023-04-30T07:56:50.048Z,99153.47
2023-04-30T07:59:16.256Z,99163.13
2023-04-30T08:01:42.895Z,99160.47
2023-04-30T08:04:09.084Z,99160.47
2023-04-30T08:06:35.302Z,99163.13
2023-04-30T08:09:01.417Z,99159.63
2023-04-30T08:11:27.510Z,99157.78
2023-04-30T08:13:53.627Z,99161.31
2023-04-30T08:16:19.834Z,99169.31
2023-04-30T08:18:46.011Z,99159.47
2023-04-30T08:21:12.124Z,99162.13
2023-04-30T08:23:38.329Z,99160.28
2023-04-30T08:26:04.430Z,99167.31
2023-04-30T08:28:30.530Z,99165.47
2023-04-30T08:30:56.663Z,99165.47
2023-04-30T08:33:22.826Z,99166.28
2023-04-30T08:35:49.003Z,99164.44
2023-04-30T08:38:15.129Z,99155.59
2023-04-30T08:40:50.825Z,99164.44
2023-04-30T08:43:17.475Z,99163.44
2023-04-30T08:45:43.649Z,99161.75
2023-04-30T08:48:09.770Z,99160.75
2023-04-30T08:50:36.086Z,99161.59
2023-04-30T08:53:02.215Z,99164.25
2023-04-30T08:55:28.318Z,99167.91
2023-04-30T08:57:54.431Z,99163.44
2023-04-30T09:00:20.565Z,99158.91
2023-04-30T09:02:46.771Z,99161.59
2023-04-30T09:05:13.461Z,99161.41
2023-04-30T09:07:41.466Z,99156.91
2023-04-30T09:10:09.709Z,99162.25
2023-04-30T09:12:35.810Z,99158.75
2023-04-30T09:15:01.915Z,99155.88
2023-04-30T09:17:28.044Z,99156.72
2023-04-30T09:19:54.424Z,99153.22
2023-04-30T09:22:20.632Z,99160.41
2023-04-30T09:24:46.749Z,99161.06
2023-04-30T09:27:13.362Z,99155.72
2023-04-30T09:29:39.470Z,99154.03
2023-04-30T09:32:05.572Z,99153.03
2023-04-30T09:34:31.684Z,99152.84
2023-04-30T09:36:57.786Z,99150.16
2023-04-30T09:39:23.884Z,99147.50
2023-04-30T09:41:50.066Z,99155.34
2023-04-30T09:44:16.170Z,99148.34
2023-04-30T09:46:42.320Z,99155.34
2023-04-30T09:49:08.472Z,99147.31
2023-04-30T09:51:34.572Z,99146.28
2023-04-30T09:54:00.674Z,99142.63
2023-04-30T09:56:26.840Z,99146.28
2023-04-30T09:58:52.927Z,99142.63
2023-04-30T10:01:19.129Z,99139.75
2023-04-30T10:03:45.376Z,99130.91
2023-04-30T10:06:11.504Z,99135.25
2023-04-30T10:08:37.647Z,99130.72
2023-04-30T10:11:03.770Z,99121.03
2023-04-30T10:13:29.864Z,99126.22
2023-04-30T10:15:56.282Z,99124.56
2023-04-30T10:18:22.523Z,99115.53
2023-04-30T10:20:48.656Z,99122.53
2023-04-30T10:23:14.749Z,99120.84
2023-04-30T10:25:40.932Z,99111.84
2023-04-30T10:28:07.110Z,99113.50
2023-04-30T10:30:33.218Z,99108.97
2023-04-30T10:32:59.399Z,99114.31
2023-04-30T10:35:25.497Z,99118.84
2023-04-30T10:37:51.602Z,99113.31
2023-04-30T10:40:17.775Z,99108.78
2023-04-30T10:42:43.884Z,99112.28
2023-04-30T10:45:09.990Z,99100.56
2023-04-30T10:47:36.195Z,99097.88
2023-04-30T10:50:02.307Z,99112.09
2023-04-30T10:52:28.398Z,99099.56
2023-04-30T10:54:54.509Z,99092.53
2023-04-30T10:57:20.625Z,99088.06
2023-04-30T10:59:46.716Z,99091.56
2023-04-30T11:02:12.849Z,99092.38
2023-04-30T11:04:38.961Z,99087.03
2023-04-30T11:07:05.084Z,99086.03
2023-04-30T11:09:31.191Z,99079.81
2023-04-30T11:11:57.278Z,99078.00
2023-04-30T11:14:23.395Z,99074.47
2023-04-30T11:16:49.498Z,99070.00
2023-04-30T11:19:15.603Z,99076.97
2023-04-30T11:21:41.720Z,99064.66
2023-04-30T11:24:07.831Z,99065.25
2023-04-30T11:26:33.936Z,99059.91
2023-04-30T11:29:00.060Z,99056.25
2023-04-30T11:31:26.279Z,99059.91
2023-04-30T11:33:52.422Z,99054.38
2023-04-30T11:36:18.511Z,99060.56
2023-04-30T11:38:44.706Z,99049.88
2023-04-30T11:41:10.880Z,99049.03
2023-04-30T11:43:37.002Z,99048.00
2023-04-30T11:46:03.128Z,99044.53
2023-04-30T11:48:29.218Z,99043.53
2023-04-30T11:50:55.318Z,99047.84
2023-04-30T11:53:22.411Z,99044.16
2023-04-30T11:55:48.500Z,99037.13
2023-04-30T11:58:14.600Z,99040.63
2023-04-30T12:00:40.716Z,99037.97
2023-04-30T12:03:06.915Z,99036.97
2023-04-30T12:05:33.076Z,99034.28
2023-04-30T12:07:59.235Z,99029.75
2023-04-30T12:10:25.334Z,99038.59
2023-04-30T12:12:53.015Z,99032.25
2023-04-30T12:15:19.298Z,99032.25
2023-04-30T12:17:45.461Z,99033.91
2023-04-30T12:20:11.608Z,99032.03
2023-04-30T12:22:37.737Z,99020.53
2023-04-30T12:25:04.092Z,99020.53
2023-04-30T12:27:30.242Z,99028.56
2023-04-30T12:29:56.673Z,99025.69
2023-04-30T12:32:23.186Z,99024.66
2023-04-30T12:34:49.370Z,99030.19
2023-04-30T12:37:19.491Z,99021.19
2023-04-30T12:39:45.595Z,99022.00
2023-04-30T12:42:11.712Z,99023.63
2023-04-30T12:44:37.832Z,99026.31
2023-04-30T12:47:03.965Z,99022.81
2023-04-30T12:49:30.089Z,99026.31
2023-04-30T12:51:56.197Z,99015.63
2023-04-30T12:54:22.294Z,99019.16
2023-04-30T12:56:48.426Z,99014.78
2023-04-30T12:59:14.554Z,99013.78
2023-04-30T13:01:40.687Z,99016.25
2023-04-30T13:04:06.942Z,99018.94
2023-04-30T13:06:33.130Z,99011.75
2023-04-30T13:08:59.265Z,99001.88
2023-04-30T13:11:25.345Z,99006.22
2023-04-30T13:13:51.458Z,99003.75
2023-04-30T13:16:17.592Z,99004.56
2023-04-30T13:18:43.750Z,99000.84
2023-04-30T13:21:09.855Z,98999.84
2023-04-30T13:23:44.839Z,98985.63
2023-04-30T13:26:18.493Z,98994.50
2023-04-30T13:28:44.637Z,99001.50
2023-04-30T13:31:10.749Z,98994.50
2023-04-30T13:33:36.901Z,98991.00
2023-04-30T13:36:03.049Z,98990.81
2023-04-30T13:38:29.170Z,98988.13
2023-04-30T13:40:55.674Z,98981.75
2023-04-30T13:43:21.811Z,98974.59
2023-04-30T13:45:47.933Z,98984.25
2023-04-30T13:48:14.056Z,98980.75
2023-04-30T13:50:40.411Z,98977.91
2023-04-30T13:53:06.589Z,98977.03
2023-04-30T13:55:32.717Z,98968.19
2023-04-30T13:57:58.882Z,98965.34
2023-04-30T14:00:25.007Z,98965.34
2023-04-30T14:02:51.173Z,98969.03
2023-04-30T14:05:17.323Z,98955.47
2023-04-30T14:07:43.437Z,98953.63
2023-04-30T14:10:09.667Z,98955.28
2023-04-30T14:12:35.762Z,98955.06
2023-04-30T14:15:01.853Z,98950.75
2023-04-30T14:17:28.015Z,98957.75
2023-04-30T14:19:54.323Z,98943.38
2023-04-30T14:22:20.582Z,98946.88
2023-04-30T14:24:46.708Z,98943.38
2023-04-30T14:27:12.813Z,98936.19
2023-04-30T14:29:38.899Z,98943.16
2023-04-30T14:32:05.051Z,98932.47
2023-04-30T14:34:31.186Z,98939.50
2023-04-30T14:36:57.305Z,98934.13
2023-04-30T14:39:23.438Z,98926.13
2023-04-30T14:41:50.264Z,98932.28
2023-04-30T14:44:16.778Z,98919.72
2023-04-30T14:46:43.489Z,98924.09
2023-04-30T14:49:09.589Z,98920.56
2023-04-30T14:51:35.682Z,98924.09
2023-04-30T14:54:01.820Z,98924.69
2023-04-30T14:56:27.916Z,98922.88
2023-04-30T14:58:54.011Z,98916.66
2023-04-30T15:01:20.148Z,98911.31
2023-04-30T15:03:46.442Z,98905.16
2023-04-30T15:06:12.689Z,98903.50
2023-04-30T15:08:38.827Z,98903.28
2023-04-30T15:11:04.947Z,98906.81
2023-04-30T15:13:34.947Z,98900.44
2023-04-30T15:16:02.281Z,98894.28
2023-04-30T15:18:28.438Z,98902.94
2023-04-30T15:20:54.549Z,98893.22
2023-04-30T15:23:20.718Z,98890.56
2023-04-30T15:25:46.806Z,98894.91
2023-04-30T15:28:12.895Z,98902.94
2023-04-30T15:30:39.005Z,98897.56
2023-04-30T15:33:05.153Z,98903.75
2023-04-30T15:35:31.306Z,98894.69
2023-04-30T15:37:57.410Z,98888.34
2023-04-30T15:40:23.535Z,98881.13
2023-04-30T15:42:49.635Z,98887.50
2023-04-30T15:45:15.816Z,98888.13
2023-04-30T15:47:42.079Z,98880.09
2023-04-30T15:50:08.208Z,98871.88
2023-04-30T15:52:34.302Z,98872.06
2023-04-30T15:55:00.393Z,98875.59
2023-04-30T15:57:26.497Z,98870.03
2023-04-30T15:59:52.849Z,98873.53
2023-04-30T16:02:19.153Z,98867.34
2023-04-30T16:04:45.258Z,98865.72
2023-04-30T16:07:11.389Z,98863.88
2023-04-30T16:09:37.487Z,98869.03
2023-04-30T16:12:03.578Z,98853.81
2023-04-30T16:14:29.709Z,98850.31
2023-04-30T16:16:55.854Z,98861.81
2023-04-30T16:19:22.092Z,98857.28
2023-04-30T16:21:48.217Z,98854.63
2023-04-30T16:24:14.335Z,98847.41
2023-04-30T16:26:40.443Z,98856.28
2023-04-30T16:29:06.583Z,98840.25
2023-04-30T16:31:32.757Z,98837.56
2023-04-30T16:33:58.934Z,98849.91
2023-04-30T16:36:25.047Z,98842.69
2023-04-30T16:38:51.126Z,98832.22
2023-04-30T16:41:17.242Z,98829.31
2023-04-30T16:43:43.357Z,98832.00
2023-04-30T16:46:09.507Z,98830.13
2023-04-30T16:48:35.669Z,98829.13
2023-04-30T16:51:01.873Z,98831.00
2023-04-30T16:53:28.008Z,98823.78
2023-04-30T16:55:54.106Z,98821.13
2023-04-30T16:58:20.224Z,98817.63
2023-04-30T17:00:46.322Z,98823.78
2023-04-30T17:03:14.297Z,98817.41
2023-04-30T17:05:40.449Z,98821.75
2023-04-30T17:08:06.541Z,98823.56
2023-04-30T17:10:32.645Z,98810.19
2023-04-30T17:12:58.873Z,98819.06
2023-04-30T17:15:25.015Z,98819.06
2023-04-30T17:17:51.131Z,98814.53
2023-04-30T17:20:17.292Z,98813.72
2023-04-30T17:22:43.390Z,98804.66
2023-04-30T17:25:09.513Z,98810.00
2023-04-30T17:27:35.624Z,98806.31
2023-04-30T17:30:01.716Z,98817.84
2023-04-30T17:32:27.888Z,98812.50
2023-04-30T17:34:54.105Z,98805.28
2023-04-30T17:37:20.220Z,98807.97
2023-04-30T17:39:46.334Z,98811.47
2023-04-30T17:42:12.587Z,98800.97
2023-04-30T17:44:38.799Z,98804.47
2023-04-30T17:47:04.879Z,98802.63
2023-04-30T17:49:30.993Z,98802.63
2023-04-30T17:51:57.093Z,98806.09
2023-04-30T17:54:23.208Z,98802.44
2023-04-30T17:56:50.122Z,98799.94
2023-04-30T17:59:16.285Z,98802.63
2023-04-30T18:01:42.430Z,98797.91
2023-04-30T18:04:08.692Z,98797.06
2023-04-30T18:06:34.885Z,98790.88
2023-04-30T18:09:01.053Z,98793.38
2023-04-30T18:11:27.225Z,98789.06
2023-04-30T18:13:53.423Z,98787.19
2023-04-30T18:16:19.620Z,98792.72
2023-04-30T18:18:45.817Z,98794.41
2023-04-30T18:21:12.111Z,98792.53
2023-04-30T18:23:38.394Z,98794.41
2023-04-30T18:26:04.772Z,98792.53
2023-04-30T18:28:30.882Z,98793.38
2023-04-30T18:30:57.274Z,98799.53
2023-04-30T18:33:23.729Z,98790.69
2023-04-30T18:35:50.074Z,98795.22
2023-04-30T18:38:16.270Z,98789.88
2023-04-30T18:40:42.406Z,98789.88
2023-04-30T18:43:08.685Z,98787.19
2023-04-30T18:45:34.830Z,98792.53
2023-04-30T18:48:01.041Z,98794.19
2023-04-30T18:50:27.187Z,98788.84
2023-04-30T18:52:53.302Z,98786.97
2023-04-30T18:55:19.405Z,98791.50
2023-04-30T18:57:45.517Z,98794.19
2023-04-30T19:00:11.646Z,98790.69
2023-04-30T19:02:37.917Z,98796.03
2023-04-30T19:05:04.099Z,98791.50
2023-04-30T19:07:30.226Z,98800.56
2023-04-30T19:09:56.749Z,98802.22
2023-04-30T19:12:23.200Z,98797.06
2023-04-30T19:14:49.302Z,98804.88
2023-04-30T19:17:15.469Z,98796.84
2023-04-30T19:19:41.572Z,98802.22
2023-04-30T19:22:07.674Z,98795.22
2023-04-30T19:24:33.819Z,98799.53
2023-04-30T19:26:59.932Z,98800.56
2023-04-30T19:29:27.254Z,98800.56
2023-04-30T19:31:55.340Z,98801.38
2023-04-30T19:34:21.526Z,98801.38
2023-04-30T19:36:47.657Z,98804.88
2023-04-30T19:39:13.788Z,98803.25
2023-04-30T19:41:39.891Z,98802.44
2023-04-30T19:44:05.987Z,98800.56
2023-04-30T19:46:32.344Z,98800.56
2023-04-30T19:48:58.454Z,98792.72
2023-04-30T19:51:24.544Z,98802.63
2023-04-30T19:53:50.672Z,98797.25
2023-04-30T19:56:16.786Z,98796.22
2023-04-30T19:58:42.882Z,98804.25
2023-04-30T20:01:09.219Z,98797.91
2023-04-30T20:03:35.477Z,98792.72
2023-04-30T20:06:01.667Z,98791.91
2023-04-30T20:08:27.801Z,98797.25
2023-04-30T20:10:53.904Z,98799.75
2023-04-30T20:13:20.009Z,98798.09
2023-04-30T20:15:46.140Z,98795.41
2023-04-30T20:18:12.308Z,98792.72
2023-04-30T20:20:38.437Z,98794.59
2023-04-30T20:23:05.665Z,98791.91
2023-04-30T20:25:31.767Z,98797.25
2023-04-30T20:27:57.894Z,98794.59
2023-04-30T20:30:24.364Z,98798.09
2023-04-30T20:32:50.600Z,98787.38
2023-04-30T20:35:17.161Z,98794.59
2023-04-30T20:37:43.328Z,98800.97
2023-04-30T20:40:09.466Z,98797.25
2023-04-30T20:42:35.578Z,98794.59
2023-04-30T20:45:04.624Z,98791.91
2023-04-30T20:47:31.736Z,98789.44
2023-04-30T20:49:58.037Z,98792.09
2023-04-30T20:52:24.381Z,98791.09
2023-04-30T20:54:50.792Z,98784.94
2023-04-30T20:57:16.990Z,98791.91
2023-04-30T20:59:43.270Z,98786.75
2023-04-30T21:02:09.397Z,98784.94
2023-04-30T21:04:35.502Z,98779.56
2023-04-30T21:07:01.697Z,98776.91
2023-04-30T21:09:27.841Z,98780.59
2023-04-30T21:11:56.225Z,98779.56
2023-04-30T21:14:22.545Z,98771.94
2023-04-30T21:16:48.783Z,98772.56
2023-04-30T21:19:14.917Z,98777.91
2023-04-30T21:21:41.049Z,98770.06
2023-04-30T21:24:07.146Z,98766.38
2023-04-30T21:26:33.257Z,98765.34
2023-04-30T21:28:59.443Z,98767.22
2023-04-30T21:31:25.589Z,98763.72
2023-04-30T21:33:51.851Z,98765.56
2023-04-30T21:36:18.033Z,98757.56
2023-04-30T21:38:44.162Z,98756.69
2023-04-30T21:41:10.273Z,98757.56
2023-04-30T21:43:36.394Z,98752.38
2023-04-30T21:46:02.497Z,98752.38
2023-04-30T21:48:28.674Z,98758.56
2023-04-30T21:50:55.303Z,98753.22
2023-04-30T21:53:21.399Z,98750.53
2023-04-30T21:55:47.496Z,98742.50
2023-04-30T21:58:13.624Z,98742.50
2023-04-30T22:00:39.741Z,98735.53
2023-04-30T22:03:05.924Z,98741.69
2023-04-30T22:05:32.051Z,98735.53
2023-04-30T22:07:58.164Z,98736.34
2023-04-30T22:10:24.383Z,98737.38
2023-04-30T22:12:50.511Z,98722.16
2023-04-30T22:15:16.625Z,98724.00
2023-04-30T22:17:42.801Z,98728.50
2023-04-30T22:20:08.999Z,98711.63
2023-04-30T22:22:35.098Z,98715.34
2023-04-30T22:25:01.204Z,98712.69
2023-04-30T22:27:27.515Z,98712.47
2023-04-30T22:29:53.909Z,98706.50
2023-04-30T22:32:20.321Z,98716.16
2023-04-30T22:34:46.440Z,98716.16
2023-04-30T22:37:12.541Z,98702.78
2023-04-30T22:39:38.631Z,98706.50
2023-04-30T22:42:04.756Z,98710.00
2023-04-30T22:44:30.854Z,98694.16
2023-04-30T22:46:56.992Z,98699.50
2023-04-30T22:49:31.057Z,98699.50
2023-04-30T22:51:57.961Z,98702.16
2023-04-30T22:54:24.600Z,98699.50
2023-04-30T22:56:50.717Z,98699.50
2023-04-30T22:59:16.817Z,98702.97
2023-04-30T23:01:42.952Z,98696.81
2023-04-30T23:04:09.120Z,98698.69
2023-04-30T23:06:35.333Z,98688.97
2023-04-30T23:09:01.520Z,98700.53
2023-04-30T23:11:27.619Z,98687.16
2023-04-30T23:13:53.717Z,98691.66
2023-04-30T23:16:19.906Z,98688.16
2023-04-30T23:18:46.017Z,98683.63
2023-04-30T23:21:12.101Z,98682.00
2023-04-30T23:23:38.232Z,98683.84
2023-04-30T23:26:04.373Z,98685.50
2023-04-30T23:28:30.491Z,98679.31
2023-04-30T23:30:56.662Z,98674.78
2023-04-30T23:33:22.793Z,98677.47
2023-04-30T23:35:48.939Z,98671.31
2023-04-30T23:38:15.066Z,98668.81
2023-04-30T23:40:41.186Z,98668.81
2023-04-30T23:43:07.765Z,98667.81
2023-04-30T23:45:33.889Z,98664.31
2023-04-30T23:48:00.117Z,98663.47
2023-04-30T23:50:26.252Z,98649.50
2023-04-30T23:52:52.381Z,98654.84
2023-04-30T23:55:18.512Z,98653.81
2023-04-30T23:57:44.654Z,98647.66
